Terminal Aerodrome Forecast
Issued by NWS

Home | Current Version | Previous Version | Text Only | Print | Product List | Glossary On
Versions: 1 2 3 4 5 6 7 8 9 10 11 12 13 14 15 16 17 18 19 20 21 22 23 24 25 26
000
FTUS45 KBOU 311135
TAFAPA
TAF
KAPA 311135Z 3112/0112 03005KT P6SM SCT008 OVC014
     FM311500 13005KT P6SM BKN016 OVC030
     FM311800 08008KT P6SM SCT022 BKN045
     FM312200 07012KT P6SM VCTS SCT030CB BKN060
      TEMPO 3122/0102 5SM SHRA OVC030
     FM010300 13007KT P6SM SCT025 BKN040 PROB30 0103/0106 -SHRA
     FM010900 18007KT P6SM SCT015 BKN040=

USA.gov is the U.S. government's official web portal to all federal, state and local government web resources and services.